x

Central Aleutians 230nm Sw Dutch Harbor (46072) Wave Buoy

2:50pm - Mon 29th Dec 2014 All times are UTC.

  • Sig Wave height 10.8ft
  • Peak Period 11s
  • Average Period 8s
  • Wind
    9mph, 13mph gusts
  • Sea Temp 43°f
  • Air Temp 38°f
  • Sea Pressure 998.2mb

More Historic Weather Station data

Upgrade to MSW Pro to gain access to the past 30 days of data for over 8000 Wavebouys and Weather Stations around the globe.

Join Pro

Comparision Forecast

View Surf forecast
   
Mon 12/29 2:50pm 11ft 11s 8s 9 13 mph 998.2mb 43f 38f
1:50pm 11ft 11s 8s 11 16 mph 998.3mb 43f 39f
12:50pm 11ft 10s 8s 9 11 mph 998.3mb 43f 38f
11:50am 11.5ft 11s 8s 11 13 mph 998.2mb 43f 39f
10:50am 11.5ft 9s 8s 7 11 mph 998.2mb 43f 39f
9:50am 10ft 11s 7s 9 13 mph 998.2mb 43f 40f
8:50am 12ft 11s 8s 7 11 mph 998mb 43f 39f
7:50am 12ft 9s 8s 9 13 mph 997.6mb 43f 40f
6:50am 13.5ft 11s 8s 11 13 mph 997.3mb 43f 39f
5:50am 15.5ft 10s 8s 16 20 mph 996.7mb 43f 39f
4:50am 15.5ft 11s 8s 18 25 mph 996.2mb 43f 39f
3:50am 16.5ft 11s 8s 18 25 mph 996mb 43f 39f
2:50am 16.5ft 11s 8s 22 29 mph 995.6mb 43f 39f
1:50am 17.5ft 12s 8s 25 29 mph 995.3mb 43f 39f
12:50am 18.5ft 12s 8s 25 31 mph 994.6mb 43f 38f
Sun 12/28 11:50pm 18.5ft 12s 8s 29 36 mph 993.9mb 43f 38f
10:50pm 21.5ft 13s 8s 31 38 mph 993.9mb 43f 40f
9:50pm 20.5ft 13s 8s 36 49 mph 992.9mb 43f 40f
8:50pm 20.5ft 13s 8s 34 45 mph 991.7mb 43f 39f
7:50pm 21.5ft 12s 8s 36 45 mph 990mb 43f 39f
6:50pm 21ft 11s 8s 34 43 mph 988.2mb 43f 40f
5:50pm 23ft 11s 9s 36 49 mph 987.2mb 43f 39f
4:50pm 23ft 11s 8s 38 49 mph 987mb 43f 40f
3:50pm 21.5ft 10s 8s 43 51 mph 987.5mb 43f 41f
2:50pm 20ft 10s 8s 40 49 mph 988.5mb 43f 42f
1:50pm 19ft 9s 7s 38 47 mph 989.5mb 43f 41f
12:50pm 19.5ft 8s 7s 40 51 mph 990.3mb 43f 41f
11:50am 16ft 8s 6s 43 54 mph 991.4mb 43f 40f
10:50am 15.5ft 11s 6s 43 51 mph 992.3mb 43f 40f
9:50am 13ft 11s 6s 40 56 mph 993.8mb 43f 41f
8:50am 12ft 11s 6s 34 40 mph 995.2mb 43f 41f
7:50am 11.5ft 11s 6s 29 38 mph 996.1mb 43f 40f
6:50am 12.5ft 12s 7s 27 36 mph 997.9mb 43f 40f
5:50am 14ft 11s 8s 25 31 mph 999mb 43f 40f
4:50am 13ft 12s 8s 20 25 mph 999mb 43f 40f
3:50am 13ft 12s 8s 16 20 mph 1000.2mb 43f 40f
2:50am 13ft 10s 8s 18 25 mph 1000.7mb 43f 40f
1:50am 14ft 10s 8s 18 22 mph 1000.6mb 43f 39f
12:50am 13ft 11s 8s 18 20 mph 1000.2mb 43f 39f
Sat 12/27 11:50pm 14ft 11s 8s 18 22 mph 1000.4mb 43f 38f
10:50pm 15.5ft 12s 8s 18 22 mph 1000.7mb 43f 37f
9:50pm 15ft 12s 8s 20 25 mph 1001.4mb 43f 35f
8:50pm 15ft 11s 8s 25 29 mph 1001.1mb 43f 38f
7:50pm 14.5ft 11s 8s 25 29 mph 1001.1mb 43f 40f
6:50pm 15.5ft 12s 9s 22 27 mph 1001.2mb 43f 40f
5:50pm 14ft 12s 8s 22 27 mph 1001.6mb 43f 38f
4:50pm 15.5ft 12s 9s 20 25 mph 1001.3mb 43f 39f
3:50pm 15.5ft 13s 9s 16 20 mph 1001.4mb 43f 40f
2:50pm 16.5ft 12s 9s 16 22 mph 1001.7mb 43f 40f
1:50pm 17.5ft 12s 9s 16 20 mph 1001.7mb 43f 40f
12:50pm 14.5ft 12s 8s 16 22 mph 1001.6mb 43f 39f
11:50am 16.5ft 13s 9s 16 20 mph 1001.9mb 43f 40f
10:50am 20ft 13s 9s 11 16 mph 1001.8mb 43f 39f
9:50am 20ft 12s 9s 13 22 mph 1001.8mb 43f 40f
8:50am 22ft 13s 9s 16 22 mph 1001.7mb 43f 37f
7:50am 19.5ft 12s 9s 16 18 mph 1000.9mb 43f 41f
6:50am 19ft 13s 9s 16 20 mph 1000.3mb 43f 40f
5:50am 20.5ft 12s 9s 13 20 mph 999.6mb 43f 40f
4:50am 22.5ft 11s 9s 9 13 mph 998.7mb 43f 39f
3:50am 19.5ft 13s 9s 9 13 mph 997.2mb 43f 38f
2:50am 18.5ft 13s 9s 13 20 mph 996.2mb 43f 37f
1:50am 19.5ft 12s 9s 18 22 mph 994.8mb 43f 37f
12:50am 20.5ft 13s 8s 20 27 mph 994.4mb 43f 38f
Fri 12/26 11:50pm 21.5ft 13s 8s 36 47 mph 993.7mb 43f 42f
10:50pm 23.5ft 13s 9s 36 49 mph 995mb 43f 42f
9:50pm 24.5ft 14s 9s 31 40 mph 996.3mb 43f 42f
8:50pm 22ft 13s 9s 31 38 mph 997.5mb 43f 42f
7:50pm 26ft 13s 10s 13 18 mph 998.3mb 43f 42f
6:50pm 25.5ft 14s 10s 13 18 mph 998.3mb 43f 42f
5:50pm 27ft 13s 9s 13 20 mph 997.8mb 43f 43f
4:50pm 23.5ft 13s 9s 29 36 mph 996.9mb 43f 43f
3:50pm 26ft 11s 9s 40 49 mph 995.4mb 43f 43f
2:50pm 24ft 11s 8s 43 51 mph 995.4mb 43f 42f
1:50pm 23.5ft 11s 8s 45 56 mph 995.8mb 43f 42f
12:50pm 22.5ft 9s 8s 43 54 mph 996.2mb 43f 41f
11:50am 21ft 14s 8s 43 54 mph 998mb 43f 42f
10:50am 21ft 15s 8s 40 49 mph 999.3mb 43f 42f
9:50am 19.5ft 14s 8s 36 45 mph 1001mb 43f 42f
8:50am 19ft 14s 8s 38 45 mph 1002mb 43f 42f
7:50am 18.5ft 15s 8s 38 47 mph 1002.5mb 43f 42f
6:50am 21.5ft 15s 9s 38 49 mph 1003.5mb 43f 42f
5:50am 22ft 15s 9s 34 43 mph 1004.6mb 43f 42f
4:50am 18ft 14s 9s 31 38 mph 1005.6mb 43f 41f
3:50am 21.5ft 15s 9s 29 36 mph 1006.9mb 43f 41f
2:50am 23.5ft 15s 9s 27 34 mph 1007.2mb 43f 41f
1:50am 23.5ft 15s 9s 27 34 mph 1007.5mb 43f 41f
12:50am 24.5ft 13s 9s 27 36 mph 1007.9mb 43f 41f
Thu 12/25 11:50pm 21ft 14s 9s 27 34 mph 1007.6mb 43f 40f
10:50pm 22.5ft 13s 9s 29 38 mph 1007.4mb 43f 42f
9:50pm 23.5ft 12s 9s 29 36 mph 1007.2mb 43f 41f
8:50pm 22.5ft 12s 9s 34 43 mph 1006.4mb 43f 41f
7:50pm 25.5ft 13s 9s 34 43 mph 1005.5mb 43f 41f
6:50pm 20.5ft 11s 9s 31 43 mph 1004.4mb 43f 41f
5:50pm 19.5ft 11s 8s 27 36 mph 1003.6mb 43f 39f
4:50pm 21ft 14s 9s 38 47 mph 1002.1mb 43f 39f
3:50pm 19ft 14s 9s 36 45 mph 1000.9mb 43f 40f